Time;durP1;ratioP1;P1;durP2;ratioP2;P2;SDS_P1;SDS_P2;PMS_P1;PMS_P2;Temp;Humidity;BMP_temperature;BMP_pressure;BME280_temperature;BME280_humidity;BME280_pressure;Samples;Min_cycle;Max_cycle;Signal;HPM_P1;HPM_P2
2022/06/19 00:00:54;;;;;;;20.70;4.33;;;;;;;25.42;36.64;98081.47;5091758;28;20218;-49
2022/06/19 00:03:27;;;;;;;23.47;3.63;;;;;;;25.43;36.78;98085.75;5090419;28;20190;-49
2022/06/19 00:05:54;;;;;;;18.33;3.40;;;;;;;25.33;38.46;98080.38;5091692;28;20207;-50
2022/06/19 00:08:23;;;;;;;20.53;3.57;;;;;;;25.08;37.91;98065.00;5093197;28;20213;-49
2022/06/19 00:10:50;;;;;;;22.17;4.10;;;;;;;24.95;38.33;98059.06;5095463;28;20191;-49
2022/06/19 00:13:18;;;;;;;18.73;3.45;;;;;;;24.81;40.08;98048.06;5095409;28;20591;-49
2022/06/19 00:15:46;;;;;;;19.03;3.53;;;;;;;24.60;39.47;98053.25;5095286;28;20211;-49
2022/06/19 00:18:14;;;;;;;20.73;3.93;;;;;;;24.47;39.78;98046.50;5093661;28;20238;-49
2022/06/19 00:20:41;;;;;;;23.60;3.63;;;;;;;24.42;38.97;98051.78;5095231;28;20210;-49
2022/06/19 00:23:26;;;;;;;18.07;3.00;;;;;;;24.46;39.33;98042.22;5095557;28;20329;-49
2022/06/19 00:25:54;;;;;;;19.20;4.17;;;;;;;24.52;39.05;98040.38;5095255;28;20556;-49
2022/06/19 00:28:41;;;;;;;19.83;4.23;;;;;;;24.52;38.81;98035.03;5095299;28;20232;-49
2022/06/19 00:31:08;;;;;;;15.03;3.00;;;;;;;24.52;38.24;98032.38;5095155;28;20561;-49
2022/06/19 00:33:36;;;;;;;16.98;3.58;;;;;;;24.65;38.06;98017.78;5093789;28;20197;-49
2022/06/19 00:36:03;;;;;;;16.50;3.27;;;;;;;24.72;38.20;98013.06;5094951;28;20214;-49
2022/06/19 00:38:31;;;;;;;13.93;3.05;;;;;;;24.60;38.96;98017.75;5094411;28;20228;-49
2022/06/19 00:41:00;;;;;;;15.63;3.47;;;;;;;24.49;39.69;98003.53;5093604;28;20716;-49
2022/06/19 00:43:28;;;;;;;17.80;3.40;;;;;;;24.30;41.47;98011.97;5094874;28;20234;-49
2022/06/19 00:46:03;;;;;;;24.53;3.43;;;;;;;24.18;40.50;98008.69;5093499;28;20195;-49
2022/06/19 00:48:32;;;;;;;18.27;3.50;;;;;;;24.04;40.65;98008.28;5094388;28;20234;-49
2022/06/19 00:51:02;;;;;;;20.87;3.87;;;;;;;24.11;40.80;98010.75;5094680;28;20188;-49
2022/06/19 00:53:33;;;;;;;22.83;4.27;;;;;;;23.95;41.79;98012.44;5094723;28;20184;-49
2022/06/19 00:56:01;;;;;;;22.40;4.40;;;;;;;23.81;41.58;98014.75;5094880;28;20353;-49
2022/06/19 00:58:34;;;;;;;22.10;3.07;;;;;;;23.68;42.11;98015.97;5094189;28;20202;-49
2022/06/19 01:01:08;;;;;;;19.90;3.87;;;;;;;23.57;42.59;98017.69;5094581;28;20201;-51
2022/06/19 01:03:42;;;;;;;21.33;3.83;;;;;;;23.48;43.29;98016.53;5094500;28;20189;-49
2022/06/19 01:06:10;;;;;;;19.63;3.63;;;;;;;23.37;43.72;98015.63;5094386;28;20186;-49
2022/06/19 01:08:38;;;;;;;17.73;4.40;;;;;;;23.32;43.71;98013.69;5093964;28;20234;-49
2022/06/19 01:11:06;;;;;;;22.80;4.70;;;;;;;23.25;43.57;98013.13;5094256;28;20192;-49
2022/06/19 01:13:34;;;;;;;25.57;3.63;;;;;;;23.22;44.73;98014.38;5094265;28;20182;-49
2022/06/19 01:16:05;;;;;;;23.00;3.57;;;;;;;23.19;44.64;98004.22;5094204;28;20258;-49
2022/06/19 01:18:51;;;;;;;15.20;2.90;;;;;;;23.14;45.92;98012.97;5093794;28;20220;-49
2022/06/19 01:21:26;;;;;;;16.97;3.23;;;;;;;23.00;45.75;98017.03;5094172;28;20578;-49
2022/06/19 01:24:02;;;;;;;19.17;3.55;;;;;;;22.98;45.52;98019.16;5094193;28;20195;-49
2022/06/19 01:26:36;;;;;;;21.30;3.90;;;;;;;22.92;45.05;98020.91;5094028;28;20176;-49
2022/06/19 01:29:04;;;;;;;15.73;3.60;;;;;;;22.88;46.09;98022.47;5093745;28;20709;-49
2022/06/19 01:31:35;;;;;;;20.43;3.63;;;;;;;22.87;47.26;98025.38;5093957;28;20649;-49
2022/06/19 01:34:26;;;;;;;21.47;3.60;;;;;;;22.81;47.71;98029.81;5093874;28;20559;-49
2022/06/19 01:36:56;;;;;;;24.13;3.97;;;;;;;22.85;46.03;98037.09;5092322;28;20626;-49
2022/06/19 01:39:24;;;;;;;20.73;3.63;;;;;;;22.81;46.74;98043.13;5093314;28;20219;-49
2022/06/19 01:41:52;;;;;;;17.07;3.47;;;;;;;22.73;46.71;98044.34;5093752;28;20208;-49
2022/06/19 01:44:19;;;;;;;20.50;3.27;;;;;;;22.70;47.98;98042.19;5093749;28;20233;-49
2022/06/19 01:46:47;;;;;;;15.10;3.70;;;;;;;22.61;47.97;98038.34;5093324;28;20263;-49
2022/06/19 01:49:15;;;;;;;16.53;3.87;;;;;;;22.46;48.03;98045.03;5092995;28;20205;-49
2022/06/19 01:51:43;;;;;;;19.43;3.60;;;;;;;22.38;48.44;98032.09;5093529;28;20198;-49
2022/06/19 01:54:17;;;;;;;18.90;3.50;;;;;;;22.37;49.10;98031.31;5093593;28;20186;-49
2022/06/19 01:56:45;;;;;;;18.83;3.80;;;;;;;22.26;49.08;98021.56;5093574;28;20178;-49
2022/06/19 01:59:14;;;;;;;16.13;3.27;;;;;;;22.24;49.00;98015.69;5093055;28;20222;-49
2022/06/19 02:01:42;;;;;;;17.73;2.97;;;;;;;22.16;49.95;98014.25;5093223;28;20726;-49
2022/06/19 02:04:10;;;;;;;19.53;3.70;;;;;;;22.16;50.48;98014.25;5093330;28;20297;-49
2022/06/19 02:06:41;;;;;;;17.77;3.70;;;;;;;22.09;52.14;98016.25;5093237;28;20185;-49
2022/06/19 02:09:09;;;;;;;20.70;3.30;;;;;;;21.96;51.95;98012.06;5092818;28;20620;-49
2022/06/19 02:11:37;;;;;;;15.87;3.10;;;;;;;21.86;51.91;98011.88;5091894;28;20197;-49
2022/06/19 02:14:08;;;;;;;14.73;4.30;;;;;;;21.78;52.40;98013.88;5091682;28;20665;-49
2022/06/19 02:16:41;;;;;;;15.23;3.97;;;;;;;21.72;52.19;98014.84;5093088;28;20248;-49
2022/06/19 02:19:09;;;;;;;23.23;4.03;;;;;;;21.68;53.82;98011.06;5091390;28;20666;-49
2022/06/19 02:21:39;;;;;;;15.43;3.47;;;;;;;21.63;52.65;98005.66;5092981;28;20708;-49
2022/06/19 02:24:09;;;;;;;23.47;3.70;;;;;;;21.65;53.02;98015.00;5092925;28;20185;-49
2022/06/19 02:26:38;;;;;;;20.63;3.77;;;;;;;21.69;52.19;97999.41;5092877;28;20193;-49
2022/06/19 02:29:09;;;;;;;22.90;4.53;;;;;;;21.79;51.29;98010.16;5090811;28;20286;-49
2022/06/19 02:31:41;;;;;;;23.27;3.87;;;;;;;21.74;50.96;98002.13;5091395;28;20247;-49
2022/06/19 02:34:16;;;;;;;21.30;3.50;;;;;;;21.70;51.67;97992.22;5092674;28;20185;-49
2022/06/19 02:36:49;;;;;;;20.70;3.63;;;;;;;21.77;51.47;97993.66;5092774;28;20261;-49
2022/06/19 02:39:25;;;;;;;23.10;4.40;;;;;;;21.77;51.48;98000.84;5092131;28;20304;-49
2022/06/19 02:42:01;;;;;;;22.77;3.97;;;;;;;21.96;52.00;97983.63;5092768;28;20183;-49
2022/06/19 02:44:37;;;;;;;20.90;3.90;;;;;;;21.88;51.26;97985.88;5092670;28;20216;-49
2022/06/19 02:47:07;;;;;;;16.37;4.17;;;;;;;21.82;51.74;97983.13;5091325;28;20205;-49
2022/06/19 02:49:34;;;;;;;17.93;3.60;;;;;;;21.82;51.18;97983.13;5092166;28;20694;-49
2022/06/19 02:52:03;;;;;;;14.90;3.60;;;;;;;21.87;52.24;97970.97;5092513;28;20186;-49
2022/06/19 02:54:31;;;;;;;20.50;3.97;;;;;;;21.97;51.22;97971.97;5091202;28;20190;-49
2022/06/19 02:56:59;;;;;;;12.23;3.50;;;;;;;22.05;50.75;97967.28;5092550;28;20666;-49
2022/06/19 02:59:26;;;;;;;15.37;4.27;;;;;;;22.04;50.88;97974.44;5091981;28;20216;-49
2022/06/19 03:01:54;;;;;;;20.03;4.10;;;;;;;22.07;51.88;97958.03;5092365;28;20283;-50
2022/06/19 03:04:26;;;;;;;19.60;4.33;;;;;;;22.14;51.48;97957.88;5092285;28;20673;-49
2022/06/19 03:06:54;;;;;;;17.73;3.77;;;;;;;22.17;50.88;97965.38;5092341;28;20706;-49
2022/06/19 03:09:22;;;;;;;24.80;4.00;;;;;;;22.20;50.89;97964.06;5091928;28;20230;-49
2022/06/19 03:11:49;;;;;;;21.00;3.63;;;;;;;22.37;50.40;97967.50;5092334;28;20181;-49
2022/06/19 03:14:16;;;;;;;18.73;4.27;;;;;;;22.49;49.30;97977.28;5092331;28;20238;-49
2022/06/19 03:16:45;;;;;;;25.37;4.50;;;;;;;22.56;49.95;97970.72;5092304;28;20200;-49
2022/06/19 03:19:13;;;;;;;20.13;5.13;;;;;;;22.49;50.18;97978.06;5091848;28;20564;-49
2022/06/19 03:21:41;;;;;;;19.80;4.57;;;;;;;22.64;49.77;97976.66;5092159;28;20193;-49
2022/06/19 03:24:09;;;;;;;19.93;4.37;;;;;;;22.55;51.35;97969.09;5092015;28;20189;-49
2022/06/19 03:26:37;;;;;;;18.63;4.93;;;;;;;22.46;51.54;97970.56;5090743;28;20197;-49
2022/06/19 03:29:04;;;;;;;24.80;5.00;;;;;;;22.48;51.06;97976.44;5091728;28;20622;-49
2022/06/19 03:31:32;;;;;;;15.37;4.90;;;;;;;22.43;51.63;97984.31;5092058;28;20194;-50
2022/06/19 03:33:59;;;;;;;21.20;4.47;;;;;;;22.51;51.78;97977.84;5092022;28;20187;-49
2022/06/19 03:36:26;;;;;;;18.53;4.37;;;;;;;22.56;50.70;97976.03;5092043;28;20720;-49
2022/06/19 03:38:54;;;;;;;17.60;4.73;;;;;;;22.64;49.75;97971.34;5090285;28;20261;-49
2022/06/19 03:41:22;;;;;;;14.60;3.40;;;;;;;22.72;48.01;97968.25;5091964;28;20189;-49
2022/06/19 03:43:49;;;;;;;21.13;4.40;;;;;;;22.89;47.58;97973.53;5095893;28;20189;-49
2022/06/19 03:46:19;;;;;;;21.77;4.60;;;;;;;23.03;47.85;97965.16;5095959;28;20208;-49
2022/06/19 03:49:05;;;;;;;16.73;4.03;;;;;;;23.04;47.89;97966.78;5096056;28;20221;-49
2022/06/19 03:51:33;;;;;;;22.67;4.13;;;;;;;23.03;48.91;97976.63;5095898;28;20657;-49
2022/06/19 03:54:02;;;;;;;23.60;4.40;;;;;;;23.04;50.03;97969.44;5095866;28;20208;-50
2022/06/19 03:56:32;;;;;;;22.30;4.00;;;;;;;22.96;50.71;97970.69;5095781;28;20196;-49
2022/06/19 03:58:59;;;;;;;16.77;4.67;;;;;;;22.96;51.22;97970.69;5095375;28;20266;-49
2022/06/19 04:01:29;;;;;;;13.27;4.20;;;;;;;22.87;51.35;97964.97;5095763;28;20275;-49
2022/06/19 04:03:57;;;;;;;19.17;4.90;;;;;;;22.83;52.49;97959.34;5095600;28;20178;-49
2022/06/19 04:06:28;;;;;;;15.23;4.23;;;;;;;22.75;52.42;97959.00;5095584;28;20182;-49
2022/06/19 04:08:57;;;;;;;25.00;4.77;;;;;;;22.63;53.38;97964.41;5095100;28;20194;-49
2022/06/19 04:11:27;;;;;;;19.07;5.10;;;;;;;22.61;53.26;97959.34;5095514;28;20209;-49
2022/06/19 04:13:55;;;;;;;23.80;5.50;;;;;;;22.62;53.60;97957.47;5095326;28;20217;-49
2022/06/19 04:16:25;;;;;;;15.07;5.20;;;;;;;22.69;53.05;97958.94;5095447;28;20193;-49
2022/06/19 04:18:54;;;;;;;16.80;5.63;;;;;;;22.76;53.44;97968.59;5093736;28;20299;-49
2022/06/19 04:21:24;;;;;;;16.60;5.20;;;;;;;22.76;54.31;97960.59;5095305;28;20649;-49
2022/06/19 04:23:55;;;;;;;20.03;5.30;;;;;;;22.74;54.19;97968.03;5094075;28;20200;-49
2022/06/19 04:26:42;;;;;;;19.50;5.70;;;;;;;22.68;54.49;97967.97;5095712;28;20200;-50
2022/06/19 04:29:11;;;;;;;23.27;6.37;;;;;;;22.66;55.48;97975.38;5093646;28;20205;-49
2022/06/19 04:31:39;;;;;;;10.60;4.53;;;;;;;22.66;55.02;97978.03;5095235;28;20190;-49
2022/06/19 04:34:08;;;;;;;17.80;4.80;;;;;;;22.69;54.67;97985.53;5095093;28;20193;-50
2022/06/19 04:36:35;;;;;;;15.73;5.23;;;;;;;22.70;55.29;97981.00;5095018;28;20271;-49
2022/06/19 04:39:03;;;;;;;24.27;6.07;;;;;;;22.76;55.15;97968.59;5094484;28;20202;-51
2022/06/19 04:41:36;;;;;;;16.80;5.43;;;;;;;22.83;56.14;97975.31;5094805;28;20192;-49
2022/06/19 04:44:06;;;;;;;12.87;4.83;;;;;;;22.82;56.42;97975.56;5094773;28;20248;-49
2022/06/19 04:46:51;;;;;;;12.10;4.63;;;;;;;22.84;56.83;97966.28;5095369;28;20271;-49
2022/06/19 04:49:18;;;;;;;18.83;6.07;;;;;;;22.89;58.00;97975.38;5094430;28;20552;-49
2022/06/19 04:51:46;;;;;;;20.00;5.63;;;;;;;22.91;58.47;97975.94;5094659;28;20658;-49
2022/06/19 04:54:14;;;;;;;16.83;5.40;;;;;;;22.99;57.60;97988.81;5094159;28;20178;-49
2022/06/19 04:56:41;;;;;;;23.73;5.13;;;;;;;23.00;58.67;97990.44;5094644;28;20186;-49
2022/06/19 04:59:10;;;;;;;28.47;5.80;;;;;;;23.06;57.75;97993.94;5094352;28;20227;-49
2022/06/19 05:01:39;;;;;;;21.13;5.30;;;;;;;23.10;58.20;97989.75;5094589;28;20182;-49
2022/06/19 05:04:09;;;;;;;19.13;5.47;;;;;;;23.14;58.60;97996.16;5094466;28;20658;-50
2022/06/19 05:06:36;;;;;;;14.70;4.77;;;;;;;23.22;58.02;97990.41;5094330;28;20192;-49
2022/06/19 05:09:04;;;;;;;12.20;4.93;;;;;;;23.25;58.22;97986.50;5092719;28;20220;-49
2022/06/19 05:11:32;;;;;;;17.97;5.27;;;;;;;23.36;58.06;97988.19;5094202;28;20193;-50
2022/06/19 05:14:00;;;;;;;11.23;4.77;;;;;;;23.43;57.72;97988.00;5094220;28;20193;-49
2022/06/19 05:16:29;;;;;;;19.30;6.00;;;;;;;23.53;56.92;97987.28;5094158;28;20712;-49
2022/06/19 05:18:57;;;;;;;15.77;5.20;;;;;;;23.63;56.59;97984.72;5093751;28;20618;-49
2022/06/19 05:21:26;;;;;;;16.43;6.17;;;;;;;23.72;57.65;97979.75;5093752;28;20202;-49
2022/06/19 05:23:55;;;;;;;15.63;5.37;;;;;;;23.91;55.63;97979.38;5093853;28;20655;-49
2022/06/19 05:26:25;;;;;;;16.40;5.87;;;;;;;23.89;57.43;97982.31;5094051;28;20195;-49
2022/06/19 05:28:53;;;;;;;16.93;5.27;;;;;;;24.00;56.34;97992.03;5093574;28;20209;-49
2022/06/19 05:31:21;;;;;;;22.47;5.80;;;;;;;24.24;52.07;97985.50;5093971;28;20187;-50
2022/06/19 05:33:49;;;;;;;19.13;4.93;;;;;;;24.31;55.51;97999.44;5093930;28;20190;-50
2022/06/19 05:36:17;;;;;;;15.33;5.47;;;;;;;24.37;56.52;98005.63;5093797;28;20188;-50
2022/06/19 05:38:44;;;;;;;14.80;4.77;;;;;;;24.44;55.57;98012.34;5093329;28;20214;-51
2022/06/19 05:41:12;;;;;;;17.83;4.87;;;;;;;24.68;54.41;98009.28;5093694;28;20291;-50
2022/06/19 05:43:39;;;;;;;17.98;5.35;;;;;;;25.10;53.44;98009.47;5092333;28;20196;-49
2022/06/19 05:46:11;;;;;;;21.23;5.27;;;;;;;25.36;51.81;98015.72;5093636;28;20187;-50
2022/06/19 05:48:38;;;;;;;19.13;5.28;;;;;;;25.64;48.00;98009.13;5093276;28;20199;-49
2022/06/19 05:51:10;;;;;;;17.57;4.83;;;;;;;25.90;47.87;98019.88;5093478;28;20191;-49
2022/06/19 05:53:39;;;;;;;18.43;4.97;;;;;;;26.01;49.39;98012.63;5092306;28;20188;-49
2022/06/19 05:56:07;;;;;;;16.03;4.73;;;;;;;26.17;49.17;98008.09;5093476;28;20655;-51
2022/06/19 05:58:36;;;;;;;13.93;5.07;;;;;;;26.32;48.08;98017.19;5093170;28;20562;-49
2022/06/19 06:01:03;;;;;;;20.60;4.83;;;;;;;26.47;48.61;98022.53;5093404;28;20214;-50
2022/06/19 06:03:32;;;;;;;18.93;5.43;;;;;;;26.62;48.47;98035.06;5091955;28;20188;-50
2022/06/19 06:06:00;;;;;;;18.67;5.50;;;;;;;26.72;48.68;98028.09;5092437;28;20191;-50
2022/06/19 06:08:29;;;;;;;19.52;6.45;;;;;;;26.86;48.92;98029.16;5092843;28;20210;-50
2022/06/19 06:10:57;;;;;;;13.60;5.18;;;;;;;27.03;48.75;98031.50;5093270;28;20257;-49
2022/06/19 06:13:25;;;;;;;18.08;5.60;;;;;;;27.17;48.00;98033.59;5091960;28;20204;-50
2022/06/19 06:15:52;;;;;;;18.65;5.78;;;;;;;27.20;48.18;98035.72;5092994;28;20190;-50
2022/06/19 06:18:19;;;;;;;19.50;6.25;;;;;;;27.38;47.97;98040.47;5092706;28;20211;-50
2022/06/19 06:20:54;;;;;;;21.35;5.63;;;;;;;27.50;44.12;98036.69;5092955;28;20295;-49
2022/06/19 06:23:24;;;;;;;18.85;5.85;;;;;;;27.67;40.83;98028.25;5091737;28;20201;-50
2022/06/19 06:26:00;;;;;;;21.17;5.63;;;;;;;27.95;40.02;98025.94;5093201;28;20726;-50
2022/06/19 06:28:28;;;;;;;15.52;5.75;;;;;;;28.23;42.06;98023.59;5092720;28;20302;-49
2022/06/19 06:30:59;;;;;;;15.05;5.95;;;;;;;28.53;39.06;98019.81;5091865;28;20337;-49
2022/06/19 06:33:27;;;;;;;23.25;5.97;;;;;;;28.63;41.76;98028.84;5091832;28;20191;-49
2022/06/19 06:35:54;;;;;;;18.23;6.47;;;;;;;28.70;39.00;98040.84;5093001;28;20180;-49
2022/06/19 06:38:23;;;;;;;18.85;6.72;;;;;;;28.87;39.33;98035.06;5092519;28;20235;-52
2022/06/19 06:40:51;;;;;;;20.42;6.00;;;;;;;29.09;39.41;98041.78;5092705;28;20551;-49
2022/06/19 06:43:20;;;;;;;19.08;5.60;;;;;;;29.26;39.94;98046.69;5092657;28;20189;-49
2022/06/19 06:45:48;;;;;;;20.15;6.05;;;;;;;29.20;39.16;98042.47;5092669;28;20182;-50
2022/06/19 06:48:15;;;;;;;14.98;5.75;;;;;;;29.39;39.59;98044.41;5092456;28;20212;-50
2022/06/19 06:50:43;;;;;;;20.17;5.88;;;;;;;29.40;40.22;98051.38;5092919;28;20185;-49
2022/06/19 06:53:11;;;;;;;21.15;5.75;;;;;;;29.49;40.18;98068.47;5092885;28;20272;-49
2022/06/19 06:55:38;;;;;;;17.70;6.10;;;;;;;29.61;39.88;98068.03;5092817;28;20656;-51
2022/06/19 06:58:06;;;;;;;15.30;6.28;;;;;;;29.67;39.08;98060.69;5092477;28;20300;-49
2022/06/19 07:00:34;;;;;;;18.50;6.22;;;;;;;29.78;39.88;98075.56;5092797;28;20232;-50
2022/06/19 07:03:01;;;;;;;14.80;6.15;;;;;;;29.72;38.85;98068.66;5092694;28;20250;-50
2022/06/19 07:05:30;;;;;;;21.20;7.28;;;;;;;29.92;38.92;98083.72;5091302;28;20194;-50
2022/06/19 07:07:58;;;;;;;18.55;7.40;;;;;;;29.83;38.43;98080.88;5092084;28;20197;-49
2022/06/19 07:10:26;;;;;;;13.40;7.38;;;;;;;29.87;39.62;98079.22;5091142;28;20201;-49
2022/06/19 07:12:53;;;;;;;15.57;7.03;;;;;;;29.89;39.18;98090.47;5092587;28;20217;-49
2022/06/19 07:15:20;;;;;;;12.18;7.90;;;;;;;30.04;37.87;98077.91;5092240;28;20186;-50
2022/06/19 07:17:49;;;;;;;14.73;6.93;;;;;;;29.92;38.56;98081.03;5092437;28;20274;-50
2022/06/19 07:20:16;;;;;;;12.88;7.30;;;;;;;30.01;38.94;98068.56;5092358;28;20210;-50
2022/06/19 07:22:44;;;;;;;15.38;7.88;;;;;;;30.21;38.66;98079.28;5092144;28;20190;-49
2022/06/19 07:25:16;;;;;;;15.82;7.30;;;;;;;30.04;38.89;98069.84;5092338;28;20174;-49
2022/06/19 07:27:44;;;;;;;18.40;9.13;;;;;;;29.86;38.82;98074.91;5092381;28;20201;-49
2022/06/19 07:30:16;;;;;;;12.77;8.18;;;;;;;30.17;39.00;98069.09;5092122;28;20231;-50
2022/06/19 07:32:44;;;;;;;15.95;8.10;;;;;;;30.21;38.75;98057.75;5092358;28;20190;-50
2022/06/19 07:35:12;;;;;;;18.35;8.52;;;;;;;30.31;38.97;98052.97;5092276;28;20190;-51
2022/06/19 07:37:40;;;;;;;19.38;9.13;;;;;;;30.41;38.75;98056.59;5090920;28;20209;-49
2022/06/19 07:40:08;;;;;;;14.05;8.57;;;;;;;30.51;38.27;98061.81;5091998;28;20700;-50
2022/06/19 07:42:36;;;;;;;20.10;9.23;;;;;;;30.53;38.26;98058.81;5092199;28;20268;-49
2022/06/19 07:45:04;;;;;;;17.27;9.75;;;;;;;30.48;38.80;98062.38;5092660;28;20178;-50
2022/06/19 07:50:20;;;;;;;19.42;9.65;;;;;;;30.26;38.19;98065.75;5092058;28;20638;-50
2022/06/19 07:52:50;;;;;;;18.60;8.90;;;;;;;30.33;37.21;98060.78;5092248;28;20281;-49
2022/06/19 07:55:21;;;;;;;17.25;8.93;;;;;;;30.30;38.30;98054.06;5090678;28;20193;-50
2022/06/19 07:57:49;;;;;;;17.20;9.68;;;;;;;30.42;37.68;98048.22;5092001;28;20255;-50
2022/06/19 08:00:19;;;;;;;19.92;9.55;;;;;;;30.11;37.68;98054.13;5091553;28;20286;-49
2022/06/19 08:02:47;;;;;;;15.15;10.07;;;;;;;30.31;37.58;98052.19;5092007;28;20248;-51
2022/06/19 08:05:14;;;;;;;14.95;9.30;;;;;;;30.42;36.67;98055.50;5092083;28;20182;-50
2022/06/19 08:07:43;;;;;;;15.40;9.35;;;;;;;30.47;36.06;98042.75;5091844;28;20209;-50
2022/06/19 08:10:16;;;;;;;14.27;9.32;;;;;;;30.18;36.26;98045.69;5091972;28;20189;-50
2022/06/19 08:12:46;;;;;;;16.85;9.25;;;;;;;30.44;36.45;98050.63;5090560;28;20662;-50
2022/06/19 08:15:13;;;;;;;19.15;8.70;;;;;;;30.66;36.42;98058.06;5091632;28;20726;-50
2022/06/19 08:17:40;;;;;;;13.95;8.77;;;;;;;30.64;35.22;98052.19;5091453;28;20209;-49
2022/06/19 08:20:09;;;;;;;13.88;8.68;;;;;;;30.87;34.85;98046.88;5091582;28;20718;-50
2022/06/19 08:22:37;;;;;;;15.70;8.38;;;;;;;30.96;35.25;98058.56;5091982;28;20190;-50
2022/06/19 08:25:06;;;;;;;15.80;8.63;;;;;;;31.07;34.71;98043.78;5092174;28;20598;-50
2022/06/19 08:27:36;;;;;;;17.23;8.20;;;;;;;30.95;35.06;98053.50;5091951;28;20205;-51
2022/06/19 08:30:06;;;;;;;15.00;8.80;;;;;;;31.08;34.94;98048.09;5095253;28;20190;-49
2022/06/19 08:32:34;;;;;;;20.88;7.32;;;;;;;30.78;33.88;98052.97;5095254;28;20247;-50
2022/06/19 08:35:00;;;;;;;17.95;7.93;;;;;;;30.88;34.00;98043.09;5095517;28;20763;-50
2022/06/19 08:37:28;;;;;;;13.35;8.05;;;;;;;31.08;34.28;98047.31;5093900;28;20185;-49
2022/06/19 08:39:56;;;;;;;11.15;7.50;;;;;;;31.26;33.54;98044.81;5093865;28;20293;-50
2022/06/19 08:42:47;;;;;;;11.80;7.22;;;;;;;31.27;33.49;98049.91;5095070;28;20214;-49
2022/06/19 08:45:29;;;;;;;11.27;7.10;;;;;;;31.28;33.29;98053.38;5095240;28;20186;-50
2022/06/19 08:48:48;;;;;;;15.05;6.80;;;;;;;31.35;33.87;98054.56;5095175;28;20216;-49
2022/06/19 08:51:25;;;;;;;13.00;7.28;;;;;;;31.49;33.15;98051.84;5056580;28;20203;-50
2022/06/19 08:54:29;;;;;;;17.80;7.30;;;;;;;31.42;33.18;98039.88;5094029;28;20250;-50
2022/06/19 08:57:05;;;;;;;16.52;7.20;;;;;;;31.69;32.42;98040.91;5093339;28;20213;-50
2022/06/19 08:59:46;;;;;;;15.85;6.78;;;;;;;31.45;32.39;98044.66;5094997;28;20262;-49
2022/06/19 09:02:27;;;;;;;13.20;6.32;;;;;;;31.69;31.35;98040.91;5093705;28;20229;-52
2022/06/19 09:08:06;;;;;;;14.98;6.97;;;;;;;31.87;31.70;98049.97;5094676;28;20213;-50
2022/06/19 09:10:44;;;;;;;14.88;6.47;;;;;;;31.72;32.24;98037.59;5093876;28;20194;-49
2022/06/19 09:13:24;;;;;;;11.70;6.68;;;;;;;31.71;31.98;98050.28;5093608;28;20181;-50
2022/06/19 09:16:00;;;;;;;15.43;6.95;;;;;;;31.87;31.87;98056.16;5094664;28;20250;-50
2022/06/19 09:18:38;;;;;;;10.73;6.20;;;;;;;31.89;30.38;98032.34;5094621;28;20284;-50
2022/06/19 09:21:10;;;;;;;16.92;6.57;;;;;;;31.72;30.52;98046.50;5094892;28;20666;-50
2022/06/19 09:24:02;;;;;;;16.27;7.05;;;;;;;31.38;31.69;98050.47;5094507;28;20213;-50
2022/06/19 09:26:34;;;;;;;7.75;6.13;;;;;;;31.64;31.57;98056.13;5094507;28;20239;-50
2022/06/19 09:29:11;;;;;;;10.25;6.55;;;;;;;31.76;31.84;98046.72;5093088;28;20759;-50
2022/06/19 09:31:44;;;;;;;16.33;6.95;;;;;;;31.88;32.41;98054.25;5094997;28;20178;-50
2022/06/19 09:34:17;;;;;;;13.27;6.45;;;;;;;31.91;31.34;98057.13;5094811;28;20186;-50
2022/06/19 09:36:49;;;;;;;12.48;6.55;;;;;;;31.94;31.65;98063.84;5094389;28;20185;-50
2022/06/19 09:39:22;;;;;;;15.07;6.57;;;;;;;32.02;31.40;98063.09;5094021;28;20202;-51
2022/06/19 09:41:52;;;;;;;17.65;6.65;;;;;;;32.14;31.43;98062.53;5094202;28;20277;-50
2022/06/19 09:44:26;;;;;;;9.65;5.82;;;;;;;32.29;30.92;98063.25;5094099;28;20174;-50
2022/06/19 09:47:04;;;;;;;14.02;6.60;;;;;;;32.18;31.47;98068.91;5094327;28;20207;-51
2022/06/19 09:49:36;;;;;;;14.13;6.78;;;;;;;32.18;30.52;98066.22;5094225;28;20216;-50
2022/06/19 09:52:10;;;;;;;12.55;6.18;;;;;;;32.31;31.73;98061.06;5094193;28;20699;-50
2022/06/19 09:54:43;;;;;;;16.95;6.72;;;;;;;32.38;30.81;98062.22;5094083;28;20278;-50
2022/06/19 09:57:15;;;;;;;15.43;6.43;;;;;;;32.47;30.20;98064.97;5094464;28;20201;-50
2022/06/19 09:59:49;;;;;;;11.80;5.28;;;;;;;32.15;29.02;98074.91;5093855;28;20200;-50
2022/06/19 10:02:23;;;;;;;19.27;6.18;;;;;;;32.10;29.02;98069.66;5093757;28;20300;-50
2022/06/19 10:04:58;;;;;;;9.93;5.30;;;;;;;32.16;28.36;98051.44;5094004;28;20178;-50
2022/06/19 10:07:31;;;;;;;12.70;5.60;;;;;;;32.37;28.40;98049.03;5093718;28;20189;-50
2022/06/19 10:10:05;;;;;;;10.38;5.00;;;;;;;32.20;29.09;98052.41;5093889;28;20181;-51
2022/06/19 10:12:36;;;;;;;9.23;5.03;;;;;;;32.41;28.39;98047.31;5093885;28;20620;-50
2022/06/19 10:15:10;;;;;;;9.40;4.85;;;;;;;32.47;27.94;98053.38;5092353;28;20198;-49
2022/06/19 10:17:49;;;;;;;15.18;5.53;;;;;;;32.36;27.68;98053.63;5093714;28;20277;-49
2022/06/19 10:20:19;;;;;;;14.63;6.20;;;;;;;32.31;28.48;98050.28;5093440;28;20186;-51
2022/06/19 10:22:58;;;;;;;12.55;5.22;;;;;;;32.44;28.81;98059.38;5093461;28;20209;-50
2022/06/19 10:25:36;;;;;;;13.30;6.10;;;;;;;32.28;28.90;98048.97;5093420;28;20190;-50
2022/06/19 10:28:16;;;;;;;15.85;5.50;;;;;;;32.54;28.18;98034.81;5093101;28;20202;-50
2022/06/19 10:31:11;;;;;;;12.80;5.80;;;;;;;32.59;29.08;98044.69;5093732;28;20181;-50
2022/06/19 10:33:55;;;;;;;12.57;6.13;;;;;;;32.74;28.15;98032.66;5093478;28;20549;-50
2022/06/19 10:36:32;;;;;;;14.82;6.15;;;;;;;32.75;27.47;98028.84;5093016;28;20191;-50
2022/06/19 10:39:18;;;;;;;12.57;5.53;;;;;;;32.72;27.47;98018.69;5093032;28;20206;-49
2022/06/19 10:42:01;;;;;;;10.32;5.65;;;;;;;32.85;29.17;98022.41;5092959;28;20205;-50
2022/06/19 10:44:36;;;;;;;17.52;6.35;;;;;;;33.08;27.72;98026.59;5093151;28;20271;-50
2022/06/19 10:47:12;;;;;;;10.52;5.15;;;;;;;33.23;28.13;98030.78;5091720;28;20189;-50
2022/06/19 10:50:00;;;;;;;17.60;5.63;;;;;;;33.34;28.88;98039.38;5092923;28;20185;-50
2022/06/19 10:52:35;;;;;;;12.13;5.60;;;;;;;33.51;27.74;98033.19;5092549;28;20197;-50
2022/06/19 10:55:16;;;;;;;11.63;5.65;;;;;;;33.64;28.71;98025.25;5092690;28;20200;-50
2022/06/19 10:58:08;;;;;;;12.48;5.55;;;;;;;33.82;28.68;98020.63;5092701;28;20482;-50
2022/06/19 11:00:35;;;;;;;11.32;5.95;;;;;;;33.73;26.50;98009.00;5092659;28;20186;-50
2022/06/19 11:06:01;;;;;;;12.80;5.55;;;;;;;33.83;27.61;98025.72;5091366;28;20182;-49
2022/06/19 11:08:31;;;;;;;13.30;6.20;;;;;;;33.63;27.25;98024.47;5090845;28;20218;-51
2022/06/19 11:10:59;;;;;;;12.32;5.93;;;;;;;33.51;27.86;98011.56;5092759;28;20192;-50
2022/06/19 11:13:58;;;;;;;11.10;5.43;;;;;;;33.81;28.36;98006.28;5092754;28;20190;-50
2022/06/19 11:16:25;;;;;;;12.20;4.88;;;;;;;33.56;27.28;98024.91;5092610;28;20197;-50
2022/06/19 11:18:54;;;;;;;10.43;5.20;;;;;;;33.66;26.36;98007.59;5092602;28;20711;-50
2022/06/19 11:21:26;;;;;;;12.75;4.85;;;;;;;33.77;24.85;98018.09;5091404;28;20255;-50
2022/06/19 11:23:57;;;;;;;14.82;4.80;;;;;;;33.70;24.96;98015.84;5092852;28;20182;-50
2022/06/19 11:26:28;;;;;;;15.50;5.18;;;;;;;33.88;25.74;98021.25;5092541;28;20588;-50
2022/06/19 11:28:59;;;;;;;12.68;5.00;;;;;;;33.51;25.78;98016.97;5092533;28;20210;-50
2022/06/19 11:31:31;;;;;;;13.85;5.15;;;;;;;33.59;24.90;98012.69;5091536;28;20189;-50
2022/06/19 11:34:06;;;;;;;12.95;5.10;;;;;;;33.78;25.83;98008.84;5092638;28;20194;-51
2022/06/19 11:36:38;;;;;;;13.13;4.93;;;;;;;33.81;25.68;98003.56;5092504;28;20194;-50
2022/06/19 11:39:32;;;;;;;15.13;5.45;;;;;;;33.88;25.18;98008.53;5092476;28;20214;-50
2022/06/19 11:42:00;;;;;;;11.30;5.50;;;;;;;34.07;25.19;98007.38;5089872;28;20214;-52
2022/06/19 11:44:27;;;;;;;13.30;5.82;;;;;;;34.06;24.97;97992.25;5092602;28;20192;-50
2022/06/19 11:46:56;;;;;;;8.35;4.80;;;;;;;34.03;24.80;97996.41;5092643;28;20227;-50
2022/06/19 11:49:30;;;;;;;20.77;5.50;;;;;;;34.08;25.24;97985.41;5092660;28;20275;-51
2022/06/19 11:52:03;;;;;;;11.93;4.82;;;;;;;34.39;26.26;97989.78;5092791;28;20200;-51